Time;durP1;ratioP1;P1;durP2;ratioP2;P2;SDS_P1;SDS_P2;PMS_P1;PMS_P2;Temp;Humidity;BMP_temperature;BMP_pressure;BME280_temperature;BME280_humidity;BME280_pressure;Samples;Min_cycle;Max_cycle;Signal;HPM_P1;HPM_P2
2021/12/24 00:00:19;;;;;;;33.13;4.83;;;8.00;99.90;;;;;;5050911;28;20200;-59
2021/12/24 00:02:45;;;;;;;32.20;4.37;;;7.90;99.90;;;;;;5050797;28;20191;-59
2021/12/24 00:05:12;;;;;;;36.30;5.73;;;7.80;99.90;;;;;;5050589;28;20173;-59
2021/12/24 00:07:38;;;;;;;32.63;5.40;;;7.70;99.90;;;;;;5050996;28;20197;-59
2021/12/24 00:10:07;;;;;;;34.23;4.80;;;7.60;99.90;;;;;;5051035;28;20186;-59
2021/12/24 00:12:36;;;;;;;26.97;5.23;;;7.60;99.90;;;;;;5050398;28;20179;-59
2021/12/24 00:15:14;;;;;;;28.67;5.07;;;7.60;99.90;;;;;;5050409;28;20177;-59
2021/12/24 00:17:39;;;;;;;36.40;9.03;;;7.60;99.90;;;;;;5049356;28;20204;-59
2021/12/24 00:36:18;;;;;;;39.70;11.80;;;7.50;99.90;;;;;;5010501;28;20302;-59
2021/12/24 00:38:44;;;;;;;42.87;11.07;;;7.40;99.90;;;;;;5010404;28;20216;-59
2021/12/24 00:41:13;;;;;;;28.33;9.07;;;7.40;99.90;;;;;;5009919;28;20264;-59
2021/12/24 00:43:39;;;;;;;37.83;11.50;;;7.30;99.90;;;;;;5007809;28;20205;-59
2021/12/24 00:46:04;;;;;;;36.27;11.40;;;7.40;99.90;;;;;;5009805;28;20684;-58
2021/12/24 00:48:30;;;;;;;44.33;12.23;;;7.50;99.90;;;;;;5010140;28;20217;-59
2021/12/24 00:51:18;;;;;;;34.60;11.40;;;7.50;99.90;;;;;;5010054;28;20214;-58
2021/12/24 00:56:11;;;;;;;34.67;10.20;;;7.60;99.90;;;;;;5010107;28;20281;-59
2021/12/24 00:58:38;;;;;;;44.30;11.17;;;7.50;99.90;;;;;;5010378;28;20296;-58
2021/12/24 01:01:09;;;;;;;35.30;10.53;;;7.50;99.90;;;;;;5010138;28;20671;-58
2021/12/24 01:03:36;;;;;;;45.77;10.50;;;7.60;99.90;;;;;;5010182;28;20171;-58
2021/12/24 01:06:02;;;;;;;36.17;8.53;;;7.50;99.90;;;;;;5010167;28;20182;-58
2021/12/24 01:08:28;;;;;;;33.93;8.80;;;7.50;99.90;;;;;;5009965;28;20696;-58
2021/12/24 01:11:00;;;;;;;30.27;7.77;;;7.40;99.90;;;;;;5009985;28;20183;-58
2021/12/24 01:13:27;;;;;;;35.93;6.47;;;7.30;99.90;;;;;;5009954;28;20171;-59
2021/12/24 01:16:02;;;;;;;35.73;7.17;;;7.10;99.90;;;;;;5009466;28;20225;-58
2021/12/24 01:18:43;;;;;;;32.03;7.13;;;7.00;99.90;;;;;;5010158;28;20543;-59
2021/12/24 01:23:47;;;;;;;35.87;11.20;;;7.00;99.90;;;;;;5010094;28;20229;-57
2021/12/24 01:26:20;;;;;;;25.90;8.17;;;6.80;99.90;;;;;;5019788;28;20240;-58
2021/12/24 01:39:54;;;;;;;32.63;7.53;;;6.70;99.90;;;;;;5049770;28;20180;-57
2021/12/24 01:45:17;;;;;;;34.60;7.53;;;7.30;99.90;;;;;;5053504;28;20203;-63
2021/12/24 01:47:43;;;;;;;31.70;9.00;;;7.20;99.90;;;;;;5053044;28;20176;-57
2021/12/24 01:50:09;;;;;;;27.60;9.70;;;7.20;99.90;;;;;;5053324;28;20212;-57
2021/12/24 01:52:37;;;;;;;37.43;9.50;;;7.30;99.90;;;;;;5052925;28;20298;-56
2021/12/24 01:55:04;;;;;;;23.83;7.93;;;7.40;99.90;;;;;;5038961;28;20181;-57
2021/12/24 01:57:32;;;;;;;28.63;6.43;;;7.40;99.90;;;;;;5052774;28;20216;-57
2021/12/24 02:00:00;;;;;;;21.60;7.50;;;7.60;99.90;;;;;;5052530;28;20696;-57
2021/12/24 02:02:27;;;;;;;32.80;6.90;;;7.60;99.90;;;;;;5052793;28;20177;-58
2021/12/24 02:04:53;;;;;;;23.60;5.17;;;;;;;;;;5052862;28;20655;-57
2021/12/24 02:07:19;;;;;;;25.53;6.43;;;7.70;99.90;;;;;;5052618;28;20672;-57
2021/12/24 02:09:45;;;;;;;22.80;5.20;;;7.40;99.90;;;;;;5052577;28;20217;-57
2021/12/24 02:12:11;;;;;;;30.57;7.57;;;7.20;99.90;;;;;;5053254;28;20234;-57
2021/12/24 02:14:39;;;;;;;19.30;7.23;;;7.20;99.90;;;;;;5052995;28;20212;-57
2021/12/24 02:17:30;;;;;;;30.93;6.17;;;7.50;99.90;;;;;;5052752;28;20189;-57
2021/12/24 02:30:44;;;;;;;23.70;5.27;;;7.50;99.90;;;;;;5052648;28;20663;-58
2021/12/24 02:33:10;;;;;;;31.93;5.00;;;7.50;99.90;;;;;;5052690;28;20173;-57
2021/12/24 02:35:36;;;;;;;26.37;5.77;;;7.40;99.90;;;;;;5052170;28;20188;-57
2021/12/24 02:38:03;;;;;;;27.47;5.63;;;6.80;99.90;;;;;;5052624;28;20197;-56
2021/12/24 02:40:30;;;;;;;31.30;5.80;;;7.20;99.90;;;;;;5052163;28;20177;-57
2021/12/24 02:42:57;;;;;;;17.00;4.73;;;7.00;99.90;;;;;;5052496;28;21298;-57
2021/12/24 02:45:25;;;;;;;19.60;4.90;;;6.90;99.90;;;;;;5052658;28;20181;-57
2021/12/24 02:55:32;;;;;;;19.83;4.00;;;6.70;99.90;;;;;;5052043;28;20204;-57
2021/12/24 02:57:59;;;;;;;30.20;5.17;;;6.70;99.90;;;;;;5052180;28;20648;-57
2021/12/24 03:00:27;;;;;;;23.87;5.47;;;6.50;99.90;;;;;;5051544;28;20185;-57
2021/12/24 03:02:54;;;;;;;20.63;5.43;;;6.50;99.90;;;;;;5052072;28;20181;-57
2021/12/24 03:05:23;;;;;;;31.87;5.43;;;6.40;99.90;;;;;;5052219;28;20766;-57
2021/12/24 03:07:49;;;;;;;25.60;4.40;;;6.40;99.90;;;;;;5051849;28;20185;-57
2021/12/24 03:10:18;;;;;;;35.00;5.93;;;6.40;99.90;;;;;;5052076;28;20231;-57
2021/12/24 03:12:46;;;;;;;32.03;5.17;;;6.70;99.90;;;;;;5052159;28;20231;-57
2021/12/24 03:15:14;;;;;;;32.97;5.67;;;6.90;99.90;;;;;;5051706;28;20185;-57
2021/12/24 03:17:46;;;;;;;35.73;6.40;;;7.00;99.90;;;;;;5051360;28;20325;-57
2021/12/24 03:20:13;;;;;;;44.50;6.13;;;6.90;99.90;;;;;;5051314;28;20181;-57
2021/12/24 03:25:38;;;;;;;27.07;6.73;;;6.70;99.90;;;;;;5024598;28;20193;-57
2021/12/24 03:28:04;;;;;;;21.70;6.90;;;6.50;99.90;;;;;;5030223;28;20290;-57
2021/12/24 03:30:30;;;;;;;31.53;6.97;;;6.40;99.90;;;;;;5031452;28;20222;-57
2021/12/24 03:32:56;;;;;;;30.13;7.53;;;6.40;99.90;;;;;;5030478;28;20204;-57
2021/12/24 03:35:21;;;;;;;36.80;7.07;;;6.50;99.90;;;;;;5031632;28;20166;-57
2021/12/24 03:37:47;;;;;;;26.20;7.20;;;6.60;99.90;;;;;;5031559;28;20562;-57
2021/12/24 03:40:13;;;;;;;28.67;7.00;;;6.60;99.90;;;;;;5030854;28;20186;-57
2021/12/24 03:42:41;;;;;;;37.13;7.10;;;6.70;99.90;;;;;;5031352;28;20165;-57
2021/12/24 03:45:29;;;;;;;40.67;7.67;;;6.80;99.90;;;;;;5030996;28;20185;-57
2021/12/24 03:47:59;;;;;;;30.93;6.57;;;7.00;99.90;;;;;;5017617;28;20184;-57
2021/12/24 03:50:40;;;;;;;17.23;5.53;;;7.00;99.90;;;;;;5031182;28;20182;-57
2021/12/24 03:54:55;;;;;;;24.57;6.13;;;7.10;99.90;;;;;;5031158;28;20204;-57
2021/12/24 03:55:51;;;;;;;19.13;5.10;;;7.00;99.90;;;;;;5011556;28;20193;-57
2021/12/24 03:58:17;;;;;;;25.77;5.57;;;7.00;99.90;;;;;;5013173;28;20175;-56
2021/12/24 04:00:43;;;;;;;39.60;6.20;;;7.00;99.90;;;;;;5029644;28;20182;-57
2021/12/24 04:03:09;;;;;;;26.60;5.80;;;7.00;99.90;;;;;;5030702;28;20221;-58
2021/12/24 04:05:35;;;;;;;25.03;5.53;;;6.70;99.90;;;;;;5031046;28;20696;-57
2021/12/24 04:08:00;;;;;;;29.03;5.03;;;6.80;99.90;;;;;;5030765;28;20480;-58
2021/12/24 04:10:40;;;;;;;28.57;4.70;;;6.80;99.90;;;;;;5030728;28;20625;-57
2021/12/24 04:13:10;;;;;;;24.67;4.50;;;6.70;99.90;;;;;;5031148;28;20698;-57
2021/12/24 04:15:37;;;;;;;27.67;4.60;;;6.70;99.90;;;;;;5015106;28;20264;-57
2021/12/24 04:18:14;;;;;;;22.70;4.67;;;6.60;99.90;;;;;;5030697;28;20628;-57
2021/12/24 04:26:10;;;;;;;26.13;5.57;;;6.60;99.90;;;;;;5035052;28;20227;-57
2021/12/24 04:28:36;;;;;;;27.03;5.60;;;6.50;99.90;;;;;;5050549;28;20208;-58
2021/12/24 04:31:02;;;;;;;21.77;5.13;;;6.40;99.90;;;;;;5050512;28;20180;-57
2021/12/24 04:33:37;;;;;;;20.07;5.27;;;6.40;99.90;;;;;;5050530;28;20181;-57
2021/12/24 05:03:13;;;;;;;41.40;5.93;;;6.30;99.90;;;;;;5049443;28;20637;-58
2021/12/24 05:05:52;;;;;;;29.53;5.80;;;6.60;99.90;;;;;;5049971;28;20230;-58
2021/12/24 05:08:22;;;;;;;40.03;6.67;;;6.60;99.90;;;;;;5049759;28;20571;-58
2021/12/24 05:10:49;;;;;;;32.50;6.70;;;6.50;99.90;;;;;;5050483;28;20184;-57
2021/12/24 05:13:16;;;;;;;18.57;5.23;;;6.50;99.90;;;;;;5049607;28;20176;-58
2021/12/24 05:15:46;;;;;;;21.50;4.90;;;6.40;99.90;;;;;;5052761;28;20180;-58
2021/12/24 05:18:33;;;;;;;27.60;5.23;;;6.20;99.90;;;;;;5053792;28;20165;-58
2021/12/24 05:23:43;;;;;;;25.60;5.03;;;6.10;99.90;;;;;;5053776;28;20227;-58
2021/12/24 05:26:09;;;;;;;33.93;5.30;;;6.00;99.90;;;;;;5053464;28;20217;-57
2021/12/24 05:28:38;;;;;;;27.37;4.97;;;6.00;99.90;;;;;;5053426;28;20197;-57
2021/12/24 05:31:04;;;;;;;22.87;4.63;;;6.00;99.90;;;;;;5054226;28;20303;-58
2021/12/24 05:33:30;;;;;;;36.57;6.53;;;6.00;99.90;;;;;;5053030;28;20334;-58
2021/12/24 05:35:55;;;;;;;29.93;5.40;;;6.10;99.90;;;;;;5053675;28;20260;-57
2021/12/24 05:38:21;;;;;;;38.57;6.90;;;6.00;99.90;;;;;;5053704;28;20185;-58
2021/12/24 05:40:47;;;;;;;33.07;6.87;;;6.20;99.90;;;;;;5053815;28;20181;-58
2021/12/24 05:43:13;;;;;;;29.10;6.07;;;6.30;99.90;;;;;;5053196;28;20647;-58
2021/12/24 05:45:40;;;;;;;33.93;6.33;;;6.30;99.90;;;;;;5053542;28;20644;-58
2021/12/24 05:48:06;;;;;;;33.53;6.00;;;6.30;99.90;;;;;;5053091;28;20256;-58
2021/12/24 05:50:32;;;;;;;34.40;6.07;;;6.20;99.90;;;;;;5053411;28;20184;-57
2021/12/24 05:52:58;;;;;;;31.80;5.73;;;6.10;99.90;;;;;;5052354;28;20237;-57
2021/12/24 05:55:24;;;;;;;23.43;5.07;;;8.10;99.90;;;;;;5053414;28;20184;-57
2021/12/24 05:57:50;;;;;;;20.70;5.13;;;7.80;99.90;;;;;;5053354;28;20179;-57
2021/12/24 06:00:16;;;;;;;25.10;4.97;;;5.90;99.90;;;;;;5052999;28;20201;-57
2021/12/24 06:02:42;;;;;;;24.50;4.93;;;5.80;99.90;;;;;;5052647;28;20177;-57
2021/12/24 06:05:08;;;;;;;24.00;4.90;;;5.70;99.90;;;;;;5052830;28;20255;-57
2021/12/24 06:07:34;;;;;;;19.57;4.97;;;6.10;99.90;;;;;;5052897;28;20189;-57
2021/12/24 06:10:00;;;;;;;23.23;5.50;;;6.00;99.90;;;;;;5052884;28;20223;-57
2021/12/24 06:12:26;;;;;;;33.87;5.70;;;5.60;99.90;;;;;;5052424;28;21530;-57
2021/12/24 06:14:55;;;;;;;30.63;5.50;;;5.60;99.90;;;;;;5052723;28;20177;-57
2021/12/24 06:17:23;;;;;;;26.90;5.50;;;5.50;99.90;;;;;;5052829;28;20647;-57
2021/12/24 06:19:49;;;;;;;25.63;5.37;;;5.40;99.90;;;;;;5052522;28;20172;-57
2021/12/24 06:22:15;;;;;;;15.87;5.30;;;5.40;99.90;;;;;;5053073;28;20185;-57
2021/12/24 06:24:41;;;;;;;29.27;6.10;;;5.40;99.90;;;;;;5050846;28;20260;-57
2021/12/24 06:27:07;;;;;;;22.87;5.87;;;5.40;99.90;;;;;;5052532;28;20624;-57
2021/12/24 06:29:33;;;;;;;27.77;5.50;;;5.20;99.90;;;;;;5052567;28;20667;-57
2021/12/24 06:31:59;;;;;;;35.20;6.17;;;5.50;99.90;;;;;;5052459;28;20178;-57
2021/12/24 06:34:30;;;;;;;28.17;5.47;;;5.40;99.90;;;;;;5053036;28;20173;-57
2021/12/24 06:36:58;;;;;;;21.20;5.70;;;5.40;99.90;;;;;;5052921;28;20693;-57
2021/12/24 06:39:24;;;;;;;24.17;6.03;;;5.10;99.90;;;;;;5052633;28;20174;-57
2021/12/24 06:41:50;;;;;;;49.50;7.30;;;5.40;99.90;;;;;;5052352;28;20177;-57
2021/12/24 06:44:16;;;;;;;32.83;7.27;;;5.50;99.90;;;;;;5052200;28;20268;-57
2021/12/24 06:46:43;;;;;;;38.50;7.83;;;5.70;99.90;;;;;;5034744;28;20204;-58
2021/12/24 06:49:10;;;;;;;34.60;7.07;;;5.70;99.90;;;;;;5052489;28;20263;-57
2021/12/24 06:51:36;;;;;;;30.33;6.30;;;5.60;99.90;;;;;;5052362;28;20181;-58
2021/12/24 06:54:03;;;;;;;26.47;6.43;;;5.60;99.90;;;;;;5051703;28;20174;-56
2021/12/24 06:56:29;;;;;;;24.10;5.87;;;5.50;99.90;;;;;;5052192;28;20188;-62
2021/12/24 06:58:54;;;;;;;26.90;5.90;;;5.30;99.90;;;;;;5052201;28;20192;-58
2021/12/24 07:01:20;;;;;;;25.40;6.13;;;5.30;99.90;;;;;;5051857;28;20185;-58
2021/12/24 07:03:46;;;;;;;25.03;6.13;;;5.20;99.90;;;;;;5051717;28;20261;-59
2021/12/24 07:06:12;;;;;;;22.80;6.30;;;5.10;99.90;;;;;;5051362;28;20189;-58
2021/12/24 07:08:39;;;;;;;30.50;6.80;;;5.30;99.90;;;;;;5051604;28;20220;-59
2021/12/24 07:11:05;;;;;;;32.57;7.43;;;5.30;99.90;;;;;;5051323;28;20663;-57
2021/12/24 07:13:31;;;;;;;34.30;7.43;;;5.40;99.90;;;;;;5051597;28;20184;-57
2021/12/24 07:15:57;;;;;;;30.03;6.73;;;5.30;99.90;;;;;;5051852;28;20502;-57
2021/12/24 07:18:23;;;;;;;33.57;7.00;;;5.00;99.90;;;;;;5051422;28;20177;-57
2021/12/24 07:20:49;;;;;;;32.50;7.07;;;5.20;99.90;;;;;;5051725;28;20203;-57
2021/12/24 07:23:14;;;;;;;19.07;5.20;;;5.10;99.90;;;;;;5051770;28;20178;-57
2021/12/24 07:25:40;;;;;;;27.67;5.53;;;5.00;99.90;;;;;;5050063;28;20192;-57
2021/12/24 07:28:06;;;;;;;18.23;5.10;;;5.20;99.90;;;;;;5050596;28;20639;-57
2021/12/24 07:30:33;;;;;;;17.50;5.90;;;5.10;99.90;;;;;;5051281;28;20180;-58
2021/12/24 07:32:59;;;;;;;20.97;6.37;;;5.10;99.90;;;;;;5051395;28;20173;-58
2021/12/24 07:35:25;;;;;;;23.67;6.43;;;5.10;99.90;;;;;;5050798;28;20260;-58
2021/12/24 07:37:51;;;;;;;26.07;7.23;;;5.20;99.90;;;;;;5051182;28;20170;-58
2021/12/24 07:40:18;;;;;;;16.33;6.67;;;5.30;99.90;;;;;;5050601;28;20755;-58
2021/12/24 07:42:45;;;;;;;23.77;6.63;;;5.20;99.90;;;;;;5050846;28;20192;-58
2021/12/24 07:45:12;;;;;;;24.33;6.87;;;5.20;99.90;;;;;;5050905;28;20180;-57
2021/12/24 07:47:41;;;;;;;18.53;6.10;;;5.20;99.90;;;;;;5050964;28;20261;-57
2021/12/24 07:52:55;;;;;;;28.53;6.90;;;5.20;99.90;;;;;;5050827;28;20177;-57
2021/12/24 07:55:20;;;;;;;43.57;8.13;;;5.40;99.90;;;;;;5051051;28;20221;-58
2021/12/24 07:57:49;;;;;;;37.00;8.53;;;5.60;99.90;;;;;;5051652;28;20209;-58
2021/12/24 08:00:17;;;;;;;42.97;9.00;;;5.80;99.90;;;;;;5050000;28;20312;-58
2021/12/24 08:02:43;;;;;;;52.07;9.30;;;5.90;99.90;;;;;;5050721;28;20188;-57
2021/12/24 08:05:10;;;;;;;32.80;8.03;;;5.90;99.90;;;;;;5050812;28;20252;-58
2021/12/24 08:07:36;;;;;;;32.87;8.20;;;6.00;99.90;;;;;;5050384;28;20623;-58
2021/12/24 08:10:02;;;;;;;27.23;7.33;;;5.70;99.90;;;;;;5050539;28;20270;-58
2021/12/24 08:12:28;;;;;;;31.50;7.93;;;5.80;99.90;;;;;;5050515;28;20181;-63
2021/12/24 08:14:54;;;;;;;33.57;8.70;;;5.70;99.90;;;;;;5050853;28;20714;-63
2021/12/24 08:17:20;;;;;;;29.13;8.07;;;5.80;99.90;;;;;;5049610;28;20594;-68
2021/12/24 08:19:45;;;;;;;29.53;7.83;;;5.70;99.90;;;;;;5050741;28;20169;-65
2021/12/24 08:22:11;;;;;;;15.57;6.23;;;5.70;99.90;;;;;;5050403;28;20177;-65
2021/12/24 08:24:39;;;;;;;24.47;7.07;;;7.70;99.90;;;;;;5050907;28;20188;-68
2021/12/24 08:27:05;;;;;;;24.80;6.90;;;6.80;99.90;;;;;;5050036;28;20220;-67
2021/12/24 08:29:31;;;;;;;28.90;7.13;;;;;;;;;;5050135;28;20697;-66
2021/12/24 08:31:57;;;;;;;27.27;7.23;;;5.50;99.90;;;;;;5050356;28;20170;-65
2021/12/24 08:34:23;;;;;;;29.30;7.80;;;5.50;99.90;;;;;;5050077;28;20177;-66
2021/12/24 08:36:52;;;;;;;37.27;7.80;;;5.60;99.90;;;;;;5049144;28;20175;-67
2021/12/24 08:39:19;;;;;;;35.70;6.97;;;5.80;99.90;;;;;;5050064;28;20173;-70
2021/12/24 08:41:46;;;;;;;41.47;8.57;;;6.00;99.90;;;;;;5050636;28;20213;-70
2021/12/24 08:44:12;;;;;;;41.47;8.97;;;6.20;99.90;;;;;;5050023;28;20173;-71
2021/12/24 08:46:38;;;;;;;39.10;8.60;;;6.30;99.90;;;;;;5053232;28;20219;-70
2021/12/24 08:49:04;;;;;;;35.83;8.97;;;6.40;99.90;;;;;;5053816;28;20263;-70
2021/12/24 08:51:30;;;;;;;49.27;8.93;;;6.40;99.90;;;;;;5054983;28;20184;-70
2021/12/24 08:53:56;;;;;;;48.47;8.60;;;6.60;99.90;;;;;;5050064;28;20264;-71
2021/12/24 08:56:22;;;;;;;32.33;8.23;;;6.70;99.90;;;;;;5050113;28;20261;-66
2021/12/24 08:58:48;;;;;;;32.77;7.83;;;6.50;99.90;;;;;;5050318;28;20169;-66
2021/12/24 09:01:14;;;;;;;44.10;8.77;;;6.60;99.90;;;;;;5050354;28;20227;-67
2021/12/24 09:03:40;;;;;;;42.47;8.83;;;6.90;99.90;;;;;;5050068;28;20169;-67
2021/12/24 09:06:06;;;;;;;38.37;8.67;;;7.00;99.90;;;;;;5050152;28;20174;-66
2021/12/24 09:08:32;;;;;;;34.17;8.90;;;6.90;99.90;;;;;;5050229;28;20205;-67
2021/12/24 09:10:58;;;;;;;37.50;8.47;;;7.10;99.90;;;;;;5050226;28;20173;-61
2021/12/24 09:13:24;;;;;;;42.10;8.93;;;7.10;99.90;;;;;;5043474;28;20189;-65
2021/12/24 09:15:50;;;;;;;44.53;10.23;;;7.30;99.90;;;;;;5038946;28;20530;-64
2021/12/24 09:18:16;;;;;;;45.70;9.83;;;7.20;99.90;;;;;;5030016;28;20170;-62
2021/12/24 09:20:44;;;;;;;37.60;9.50;;;7.30;99.90;;;;;;5043247;28;20654;-59
2021/12/24 09:23:11;;;;;;;45.00;9.60;;;7.40;99.90;;;;;;5049972;28;20177;-63
2021/12/24 09:25:38;;;;;;;42.20;9.50;;;7.50;99.90;;;;;;5048432;28;20185;-57
2021/12/24 09:28:04;;;;;;;35.90;9.43;;;7.50;99.90;;;;;;5049923;28;20590;-57
2021/12/24 09:30:31;;;;;;;37.17;9.57;;;7.70;99.90;;;;;;5050115;28;20640;-58
2021/12/24 09:32:56;;;;;;;36.33;9.33;;;7.70;99.90;;;;;;5049068;28;20670;-62
2021/12/24 09:35:24;;;;;;;31.90;8.73;;;7.70;99.90;;;;;;5048122;28;20185;-63
2021/12/24 09:37:50;;;;;;;31.63;9.00;;;8.20;99.90;;;;;;5050099;28;20178;-61
2021/12/24 09:40:18;;;;;;;39.03;9.07;;;7.80;99.90;;;;;;5048699;28;20169;-61
2021/12/24 09:42:45;;;;;;;34.53;8.40;;;7.90;99.90;;;;;;5049344;28;20280;-59
2021/12/24 09:45:12;;;;;;;34.77;8.53;;;8.00;99.90;;;;;;5050071;28;20181;-60
2021/12/24 09:47:38;;;;;;;38.80;10.77;;;8.00;99.90;;;;;;5048272;28;20287;-60
2021/12/24 09:50:06;;;;;;;40.80;7.63;;;8.00;99.90;;;;;;5049764;28;20221;-59
2021/12/24 09:52:33;;;;;;;30.00;7.83;;;8.10;99.90;;;;;;5049229;28;20178;-60
2021/12/24 09:55:08;;;;;;;29.63;8.03;;;8.10;99.90;;;;;;5049668;28;20184;-60
2021/12/24 09:57:33;;;;;;;35.87;7.67;;;8.30;99.90;;;;;;5049881;28;20176;-60
2021/12/24 09:59:59;;;;;;;25.97;6.87;;;8.30;99.90;;;;;;5048539;28;20185;-60
2021/12/24 10:02:44;;;;;;;34.90;8.57;;;8.30;99.90;;;;;;5052950;28;20208;-60
2021/12/24 10:05:44;;;;;;;32.43;8.03;;;8.30;99.90;;;;;;5053221;28;20636;-60
2021/12/24 10:08:19;;;;;;;31.67;8.20;;;8.50;99.90;;;;;;5041437;28;20250;-60
2021/12/24 10:10:48;;;;;;;27.63;7.60;;;8.40;99.90;;;;;;5053108;28;20238;-60
2021/12/24 10:13:33;;;;;;;33.33;7.57;;;8.50;99.90;;;;;;5053129;28;20275;-60
2021/12/24 10:16:04;;;;;;;45.73;9.50;;;8.50;99.90;;;;;;5053406;28;20260;-55
2021/12/24 10:18:45;;;;;;;39.03;8.33;;;8.50;99.90;;;;;;5052946;28;20184;-57
2021/12/24 10:21:11;;;;;;;34.87;7.07;;;8.60;99.90;;;;;;5052642;28;20181;-57
2021/12/24 10:23:51;;;;;;;27.30;8.33;;;8.60;99.90;;;;;;5052253;28;20184;-57
2021/12/24 10:26:31;;;;;;;33.53;7.30;;;8.70;99.90;;;;;;5052138;28;20217;-56
2021/12/24 10:29:07;;;;;;;27.40;6.97;;;8.80;99.90;;;;;;5052957;28;20293;-57
2021/12/24 10:31:40;;;;;;;28.73;7.17;;;8.80;99.90;;;;;;5052777;28;20177;-57
2021/12/24 10:34:20;;;;;;;37.23;8.27;;;9.20;99.90;;;;;;5052713;28;20740;-57
2021/12/24 10:37:03;;;;;;;42.10;8.37;;;9.00;99.90;;;;;;5051224;28;20188;-56
2021/12/24 10:39:32;;;;;;;31.17;7.77;;;9.00;99.90;;;;;;5050539;28;20222;-56
2021/12/24 10:41:59;;;;;;;30.77;6.73;;;9.10;99.90;;;;;;5050524;28;20264;-56
2021/12/24 10:44:29;;;;;;;33.90;7.17;;;9.10;99.90;;;;;;5050540;28;20177;-57
2021/12/24 10:47:07;;;;;;;30.77;7.47;;;9.10;99.90;;;;;;5050704;28;20233;-56
2021/12/24 10:54:53;;;;;;;32.57;6.60;;;9.20;99.90;;;;;;5052833;28;20659;-57
2021/12/24 10:57:25;;;;;;;23.03;6.93;;;9.20;99.90;;;;;;5052561;28;20177;-56
2021/12/24 10:59:54;;;;;;;30.50;6.63;;;9.20;99.90;;;;;;5052429;28;20827;-57
2021/12/24 11:02:24;;;;;;;29.67;6.33;;;9.30;99.90;;;;;;5052534;28;20185;-56
2021/12/24 11:04:53;;;;;;;28.07;6.33;;;9.30;99.90;;;;;;5052126;28;20231;-56
2021/12/24 11:07:39;;;;;;;18.80;6.20;;;9.40;99.90;;;;;;5052325;28;20161;-57
2021/12/24 11:10:16;;;;;;;23.80;6.70;;;9.40;99.90;;;;;;5051901;28;20244;-57
2021/12/24 11:12:47;;;;;;;36.23;6.97;;;9.30;99.90;;;;;;5051313;28;20260;-57
2021/12/24 11:15:21;;;;;;;19.93;6.60;;;9.40;99.90;;;;;;5052166;28;20158;-57
2021/12/24 11:17:48;;;;;;;21.23;6.10;;;9.40;99.90;;;;;;5052082;28;20185;-56
2021/12/24 11:20:14;;;;;;;25.40;7.73;;;9.50;99.90;;;;;;5051957;28;20170;-57
2021/12/24 11:23:11;;;;;;;27.87;7.07;;;9.50;99.90;;;;;;5051889;28;20682;-56
2021/12/24 11:25:41;;;;;;;21.73;6.60;;;9.50;99.90;;;;;;5046210;28;20186;-57
2021/12/24 11:28:08;;;;;;;24.67;7.23;;;9.50;99.90;;;;;;5052188;28;20695;-57
2021/12/24 11:30:41;;;;;;;17.60;7.00;;;9.50;99.90;;;;;;5051916;28;20182;-57
2021/12/24 11:33:07;;;;;;;26.83;7.63;;;9.50;99.90;;;;;;5052069;28;20173;-57
2021/12/24 11:35:33;;;;;;;25.33;7.17;;;9.60;99.90;;;;;;5051781;28;20593;-56
2021/12/24 11:38:01;;;;;;;235.43;28.07;;;9.60;99.90;;;;;;5051651;28;20243;-57
2021/12/24 11:40:28;;;;;;;32.27;8.27;;;9.70;99.90;;;;;;5051696;28;20306;-56
2021/12/24 11:43:05;;;;;;;29.30;8.87;;;9.70;99.90;;;;;;5051809;28;20266;-56
2021/12/24 11:45:33;;;;;;;18.57;6.80;;;9.70;99.90;;;;;;5051653;28;20611;-56
2021/12/24 11:48:01;;;;;;;25.30;5.87;;;9.60;99.90;;;;;;5051661;28;20211;-56
2021/12/24 11:50:29;;;;;;;20.23;5.07;;;9.60;99.90;;;;;;5051339;28;20235;-57
2021/12/24 11:52:59;;;;;;;17.13;5.73;;;9.70;99.90;;;;;;5051370;28;20631;-57
2021/12/24 11:55:31;;;;;;;20.10;4.73;;;9.70;99.90;;;;;;5051340;28;20177;-57
2021/12/24 11:58:00;;;;;;;21.03;5.90;;;9.70;99.90;;;;;;5051463;28;20165;-56
2021/12/24 12:00:38;;;;;;;20.17;5.20;;;9.70;99.90;;;;;;5051479;28;20169;-57
2021/12/24 12:03:04;;;;;;;12.67;5.80;;;9.70;99.90;;;;;;5051188;28;20522;-57
2021/12/24 12:05:32;;;;;;;21.37;6.70;;;9.80;99.90;;;;;;5051297;28;20184;-56
2021/12/24 12:08:23;;;;;;;25.43;9.63;;;9.70;99.90;;;;;;5051376;28;20217;-56
2021/12/24 12:10:55;;;;;;;20.20;8.73;;;9.80;99.90;;;;;;5051065;28;20179;-56
2021/12/24 12:13:45;;;;;;;25.23;8.70;;;9.80;99.90;;;;;;5051170;28;20170;-56
2021/12/24 12:16:33;;;;;;;26.87;9.57;;;9.80;99.90;;;;;;5050998;28;20209;-56
2021/12/24 12:24:58;;;;;;;23.67;6.73;;;9.70;99.90;;;;;;5050891;28;20636;-56
2021/12/24 12:27:32;;;;;;;18.77;6.17;;;9.60;99.90;;;;;;5050620;28;20703;-56
2021/12/24 12:30:19;;;;;;;23.73;7.50;;;9.90;99.90;;;;;;5050589;28;20209;-56
2021/12/24 12:32:45;;;;;;;20.80;6.17;;;9.80;99.90;;;;;;5050516;28;20180;-56
2021/12/24 12:35:11;;;;;;;25.10;7.53;;;9.80;99.90;;;;;;5050696;28;20647;-57
2021/12/24 12:37:44;;;;;;;22.47;7.17;;;9.80;99.90;;;;;;5050698;28;20262;-56
2021/12/24 12:40:12;;;;;;;19.53;7.23;;;9.80;99.90;;;;;;5050558;28;20188;-56
2021/12/24 12:42:51;;;;;;;17.10;6.70;;;9.80;99.90;;;;;;5050616;28;20205;-56
2021/12/24 12:45:20;;;;;;;15.43;6.90;;;9.80;99.90;;;;;;5050753;28;20551;-57
2021/12/24 12:47:56;;;;;;;28.17;7.40;;;9.80;99.90;;;;;;5050494;28;20260;-57
2021/12/24 12:50:24;;;;;;;22.20;7.63;;;9.90;99.90;;;;;;5050415;28;20610;-57
2021/12/24 12:52:53;;;;;;;25.40;7.27;;;9.90;99.90;;;;;;5050659;28;20659;-57
2021/12/24 12:55:34;;;;;;;20.03;6.90;;;9.90;99.90;;;;;;5050408;28;20173;-57
2021/12/24 12:58:21;;;;;;;23.67;5.87;;;9.90;99.90;;;;;;5050545;28;20173;-57
2021/12/24 13:01:11;;;;;;;16.23;6.43;;;9.90;99.90;;;;;;5050433;28;20185;-57
2021/12/24 13:03:55;;;;;;;16.67;6.20;;;10.10;99.90;;;;;;5050329;28;20237;-57
2021/12/24 13:06:42;;;;;;;18.33;6.67;;;9.90;99.90;;;;;;5050478;28;20172;-57
2021/12/24 13:09:17;;;;;;;17.40;6.40;;;9.90;99.90;;;;;;5039714;28;20216;-57
2021/12/24 13:11:46;;;;;;;17.33;6.43;;;9.90;99.90;;;;;;5050173;28;20627;-57
2021/12/24 13:14:13;;;;;;;15.23;6.73;;;9.90;99.90;;;;;;5050400;28;20165;-57
2021/12/24 13:16:50;;;;;;;18.17;7.77;;;9.90;99.90;;;;;;5050231;28;20178;-57
2021/12/24 13:24:52;;;;;;;16.00;7.43;;;10.00;99.90;;;;;;5050227;28;20271;-57
2021/12/24 13:27:19;;;;;;;20.57;7.70;;;10.00;99.90;;;;;;5047796;28;20229;-57
2021/12/24 13:29:46;;;;;;;21.33;8.80;;;10.00;99.90;;;;;;5050202;28;20209;-57
2021/12/24 13:32:12;;;;;;;19.50;7.73;;;10.00;99.90;;;;;;5049987;28;20169;-57
2021/12/24 13:34:38;;;;;;;14.17;6.63;;;10.00;99.90;;;;;;5050085;28;20169;-57
2021/12/24 13:37:14;;;;;;;23.77;7.70;;;10.00;99.90;;;;;;5053414;28;20192;-57
2021/12/24 13:39:52;;;;;;;19.30;6.87;;;10.10;99.90;;;;;;5053938;28;20184;-57
2021/12/24 13:42:18;;;;;;;16.00;7.23;;;9.90;99.90;;;;;;5052651;28;20598;-57
2021/12/24 13:44:45;;;;;;;20.20;8.63;;;;;;;;;;5054140;28;20173;-57
2021/12/24 13:47:28;;;;;;;13.87;7.40;;;10.20;99.90;;;;;;5053873;28;20182;-56
2021/12/24 13:55:38;;;;;;;26.57;10.77;;;10.20;99.90;;;;;;5054341;28;20188;-56
2021/12/24 13:58:08;;;;;;;16.53;5.87;;;10.20;99.90;;;;;;5053692;28;20168;-57
2021/12/24 14:00:36;;;;;;;10.10;6.13;;;10.20;99.90;;;;;;5053655;28;20184;-56
2021/12/24 14:03:05;;;;;;;17.30;7.17;;;10.20;99.90;;;;;;5053640;28;20169;-56
2021/12/24 14:05:31;;;;;;;15.10;5.87;;;10.20;99.90;;;;;;5053608;28;20213;-56
2021/12/24 14:08:09;;;;;;;13.97;5.90;;;10.20;99.90;;;;;;5053354;28;20177;-56
2021/12/24 14:10:35;;;;;;;19.57;7.33;;;10.30;99.90;;;;;;5053330;28;20187;-56
2021/12/24 14:13:26;;;;;;;15.93;6.03;;;10.30;99.90;;;;;;5053343;28;20177;-57
2021/12/24 14:16:08;;;;;;;11.30;6.17;;;10.30;99.90;;;;;;5052630;28;20597;-57
2021/12/24 14:24:13;;;;;;;15.70;6.93;;;10.30;99.90;;;;;;5053373;28;20181;-56
2021/12/24 14:27:01;;;;;;;14.63;5.03;;;10.30;99.90;;;;;;5052998;28;20221;-57
2021/12/24 14:29:34;;;;;;;17.87;6.30;;;10.30;99.90;;;;;;5053176;28;20212;-56
2021/12/24 14:32:02;;;;;;;15.30;5.40;;;10.40;99.90;;;;;;5053164;28;20169;-57
2021/12/24 14:34:34;;;;;;;15.33;5.43;;;10.40;99.90;;;;;;5053173;28;20180;-57
2021/12/24 14:37:06;;;;;;;9.50;5.70;;;10.40;99.90;;;;;;5053107;28;20601;-56
2021/12/24 14:39:39;;;;;;;11.03;5.00;;;10.40;99.90;;;;;;5052887;28;20185;-57
2021/12/24 14:42:24;;;;;;;8.07;4.83;;;10.40;99.90;;;;;;5051558;28;20588;-56
2021/12/24 14:44:52;;;;;;;12.13;5.70;;;10.40;99.90;;;;;;5052778;28;20177;-56
2021/12/24 14:47:21;;;;;;;11.77;5.20;;;10.40;99.90;;;;;;5051448;28;20192;-56
2021/12/24 14:49:48;;;;;;;7.63;4.40;;;10.40;99.90;;;;;;5052589;28;20220;-56
2021/12/24 14:52:17;;;;;;;8.40;4.40;;;10.40;99.90;;;;;;5052628;28;20261;-56
2021/12/24 14:55:05;;;;;;;6.80;4.00;;;10.40;99.90;;;;;;5052779;28;20173;-56
2021/12/24 14:57:35;;;;;;;9.23;4.70;;;10.40;99.90;;;;;;5052588;28;20720;-56
2021/12/24 15:00:13;;;;;;;8.47;3.90;;;10.40;99.90;;;;;;5052521;28;20185;-57